Time;durP1;ratioP1;P1;durP2;ratioP2;P2;SDS_P1;SDS_P2;PMS_P1;PMS_P2;Temp;Humidity;BMP_temperature;BMP_pressure;BME280_temperature;BME280_humidity;BME280_pressure;Samples;Min_cycle;Max_cycle;Signal;HPM_P1;HPM_P2
2022/03/03 00:01:45;;;;;;;0.00;0.00;;;;;;;10.38;77.58;100339.75;7352644;19;20023;-62
2022/03/03 00:04:11;;;;;;;0.00;0.00;;;;;;;10.38;77.51;100344.97;7354385;19;20010;-62
2022/03/03 00:06:36;;;;;;;0.00;0.00;;;;;;;10.38;77.86;100337.13;7365387;19;20026;-63
2022/03/03 00:09:03;;;;;;;0.00;0.00;;;;;;;10.36;77.86;100336.34;7367266;19;20021;-62
2022/03/03 00:11:30;;;;;;;0.00;0.00;;;;;;;10.38;77.46;100342.34;7363381;19;20857;-62
2022/03/03 00:13:55;;;;;;;0.00;0.00;;;;;;;10.39;77.96;100341.44;7361369;19;20914;-62
2022/03/03 00:16:21;;;;;;;0.00;0.00;;;;;;;10.38;77.91;100338.00;7358569;19;20601;-62
2022/03/03 00:18:46;;;;;;;0.00;0.00;;;;;;;10.39;78.10;100338.84;7353626;19;20011;-63
2022/03/03 00:21:12;;;;;;;0.08;0.08;;;;;;;10.39;77.82;100338.84;7358218;19;20025;-63
2022/03/03 00:23:37;;;;;;;0.00;0.00;;;;;;;10.40;78.20;100356.25;7354396;19;20459;-63
2022/03/03 00:26:03;;;;;;;0.00;0.00;;;;;;;10.40;77.96;100345.81;7358062;19;20014;-62
2022/03/03 00:28:28;;;;;;;0.10;0.10;;;;;;;10.38;77.94;100338.00;7354278;19;20083;-61
2022/03/03 00:30:54;;;;;;;0.03;0.03;;;;;;;10.39;77.89;100334.50;7367643;19;20010;-63
2022/03/03 00:33:20;;;;;;;0.05;0.05;;;;;;;10.42;77.83;100364.88;7365993;19;20034;-63
2022/03/03 00:35:45;;;;;;;0.00;0.00;;;;;;;10.46;77.90;100361.28;7368643;19;20382;-63
2022/03/03 00:38:11;;;;;;;0.00;0.00;;;;;;;10.44;77.99;100346.53;7366233;19;20239;-63
2022/03/03 00:40:37;;;;;;;0.00;0.00;;;;;;;10.51;77.85;100354.19;7360768;19;20022;-63
2022/03/03 00:43:04;;;;;;;0.00;0.00;;;;;;;10.42;77.88;100338.78;7365465;19;20018;-63
2022/03/03 00:45:30;;;;;;;0.10;0.10;;;;;;;10.54;77.68;100359.34;7363037;19;20351;-62
2022/03/03 00:47:55;;;;;;;0.10;0.10;;;;;;;10.46;77.38;100334.31;7363061;19;20414;-63
2022/03/03 00:50:21;;;;;;;0.08;0.08;;;;;;;10.57;77.35;100358.38;7365240;19;20694;-63
2022/03/03 00:52:46;;;;;;;0.00;0.00;;;;;;;10.57;77.04;100356.63;7365758;19;20110;-63
2022/03/03 00:55:12;;;;;;;0.00;0.00;;;;;;;10.57;77.31;100360.97;7363510;19;20074;-62
2022/03/03 00:57:45;;;;;;;0.10;0.10;;;;;;;10.48;77.60;100351.66;2144636;19;10149997;-63
2022/03/03 01:00:12;;;;;;;0.00;0.00;;;;;;;10.56;76.98;100362.75;6652984;19;10000458;-63
2022/03/03 01:02:37;;;;;;;0.00;0.00;;;;;;;10.54;77.21;100361.94;7368473;19;20029;-63
2022/03/03 01:05:04;;;;;;;0.00;0.00;;;;;;;10.53;77.30;100362.81;7351076;19;20451;-63
2022/03/03 01:07:30;;;;;;;0.00;0.00;;;;;;;10.52;77.76;100361.09;7369015;19;20943;-62
2022/03/03 01:09:55;;;;;;;0.10;0.10;;;;;;;10.48;77.75;100359.47;7367541;19;20026;-63
2022/03/03 01:12:21;;;;;;;0.10;0.10;;;;;;;10.53;77.51;100364.56;7363597;19;20025;-63
2022/03/03 01:14:47;;;;;;;0.10;0.10;;;;;;;10.52;77.24;100371.56;7362579;19;20018;-62
2022/03/03 01:17:13;;;;;;;0.00;0.00;;;;;;;10.53;77.36;100362.81;7366268;19;20006;-62
2022/03/03 01:19:39;;;;;;;0.00;0.00;;;;;;;10.54;77.20;100355.84;7361973;19;20010;-63
2022/03/03 01:22:05;;;;;;;0.00;0.00;;;;;;;10.53;77.34;100349.75;7365469;19;20018;-63
2022/03/03 01:24:31;;;;;;;0.00;0.00;;;;;;;10.47;77.20;100338.66;7365594;19;20038;-63
2022/03/03 01:26:57;;;;;;;0.00;0.00;;;;;;;10.53;77.37;100352.38;7366450;19;20458;-62
2022/03/03 01:29:22;;;;;;;0.00;0.00;;;;;;;10.46;76.94;100345.63;7366951;19;20191;-63
2022/03/03 01:31:48;;;;;;;0.10;0.10;;;;;;;10.52;77.11;100363.72;7362940;19;20014;-63
2022/03/03 01:34:13;;;;;;;0.10;0.10;;;;;;;10.52;76.96;100371.56;7357977;19;20029;-62
2022/03/03 01:36:39;;;;;;;0.10;0.10;;;;;;;10.52;76.96;100360.25;7364205;19;20033;-63
2022/03/03 01:39:05;;;;;;;0.00;0.00;;;;;;;10.50;76.55;100368.13;7358351;19;20030;-62
2022/03/03 01:41:32;;;;;;;0.00;0.00;;;;;;;10.51;76.55;100369.84;7362143;19;20018;-63
2022/03/03 01:43:58;;;;;;;0.00;0.00;;;;;;;10.50;76.79;100364.69;7363530;19;20023;-62
2022/03/03 01:46:23;;;;;;;0.05;0.05;;;;;;;10.49;76.69;100371.66;7365380;19;20040;-63
2022/03/03 01:48:49;;;;;;;0.00;0.00;;;;;;;10.48;76.82;100380.34;7365148;19;20021;-62
2022/03/03 01:51:14;;;;;;;0.00;0.00;;;;;;;10.36;76.62;100362.44;7365143;19;20010;-63
2022/03/03 01:53:40;;;;;;;0.10;0.10;;;;;;;10.37;76.77;100371.97;7351142;19;20026;-62
2022/03/03 01:56:07;;;;;;;0.00;0.00;;;;;;;10.43;76.79;100382.25;7362570;19;20013;-62
2022/03/03 01:58:33;;;;;;;0.00;0.00;;;;;;;10.41;76.93;100384.03;7362724;19;20024;-61
2022/03/03 02:00:59;;;;;;;0.00;0.00;;;;;;;10.36;77.10;100381.56;7366511;19;20070;-62
2022/03/03 02:03:24;;;;;;;0.00;0.00;;;;;;;10.36;76.51;100385.94;7364305;19;20027;-63
2022/03/03 02:05:50;;;;;;;0.10;0.10;;;;;;;10.38;76.69;100384.13;7360774;19;20011;-63
2022/03/03 02:08:16;;;;;;;0.08;0.08;;;;;;;10.36;76.65;100385.94;7361229;19;20018;-63
2022/03/03 02:10:41;;;;;;;0.00;0.00;;;;;;;10.25;76.98;100361.88;7361207;19;20011;-63
2022/03/03 02:13:08;;;;;;;0.10;0.10;;;;;;;10.34;76.67;100372.03;7361392;19;20090;-63
2022/03/03 02:15:33;;;;;;;0.00;0.00;;;;;;;10.31;76.16;100374.75;7361578;19;20014;-62
2022/03/03 02:17:59;;;;;;;0.03;0.03;;;;;;;10.29;76.31;100371.31;7367730;19;20018;-62
2022/03/03 02:20:27;;;;;;;0.00;0.00;;;;;;;10.25;75.99;100378.38;7358468;19;20122;-62
2022/03/03 02:22:54;;;;;;;0.00;0.00;;;;;;;10.10;76.27;100369.16;7363065;19;20010;-63
2022/03/03 02:25:20;;;;;;;0.00;0.00;;;;;;;10.17;76.49;100379.44;7360851;19;20404;-62
2022/03/03 02:27:46;;;;;;;0.00;0.00;;;;;;;10.11;76.39;100370.88;7360002;19;20073;-63
2022/03/03 02:30:13;;;;;;;0.08;0.08;;;;;;;10.07;76.35;100384.91;7364124;19;20010;-62
2022/03/03 02:32:39;;;;;;;0.00;0.00;;;;;;;10.03;76.07;100383.25;7364474;19;20015;-63
2022/03/03 02:35:06;;;;;;;0.00;0.00;;;;;;;10.01;76.35;100384.19;7369671;19;20006;-62
2022/03/03 02:37:39;;;;;;;0.00;0.00;;;;;;;9.97;76.02;100399.06;7367310;19;20009;-62
2022/03/03 02:40:08;;;;;;;0.00;0.00;;;;;;;9.92;76.41;100395.72;7367832;19;20023;-62
2022/03/03 02:42:34;;;;;;;0.00;0.00;;;;;;;9.85;75.98;100388.94;7372164;19;20013;-63
2022/03/03 02:45:01;;;;;;;0.08;0.08;;;;;;;9.83;75.92;100394.22;7371742;19;20022;-63
2022/03/03 02:47:27;;;;;;;0.00;0.00;;;;;;;9.79;76.31;100396.94;7364964;19;20049;-62
2022/03/03 02:49:52;;;;;;;0.00;0.00;;;;;;;9.74;76.23;100394.44;7363612;19;20435;-63
2022/03/03 02:52:18;;;;;;;0.00;0.00;;;;;;;9.69;75.70;100404.13;7362636;19;20039;-62
2022/03/03 02:54:43;;;;;;;0.00;0.00;;;;;;;9.62;75.88;100398.16;7361129;19;20077;-63
2022/03/03 02:59:54;;;;;;;0.10;0.10;;;;;;;9.47;75.90;100402.88;7344887;19;20928;-62
2022/03/03 03:02:19;;;;;;;0.00;0.00;;;;;;;9.40;75.78;100402.19;7360530;19;20010;-62
2022/03/03 03:04:44;;;;;;;0.10;0.10;;;;;;;9.33;76.21;100405.81;7361239;19;20035;-62
2022/03/03 03:07:10;;;;;;;0.00;0.00;;;;;;;9.27;76.54;100418.97;7361568;19;20074;-63
2022/03/03 03:09:35;;;;;;;0.00;0.00;;;;;;;9.24;76.38;100426.88;7359769;19;20347;-63
2022/03/03 03:12:01;;;;;;;0.00;0.00;;;;;;;9.19;76.45;100420.91;7362137;19;20454;-62
2022/03/03 03:14:26;;;;;;;0.03;0.03;;;;;;;9.02;76.51;100401.28;7358629;19;20015;-61
2022/03/03 03:16:52;;;;;;;0.00;0.00;;;;;;;9.14;76.92;100423.59;7360833;19;19998;-62
2022/03/03 03:19:17;;;;;;;0.00;0.00;;;;;;;9.07;76.84;100430.69;7360089;19;20019;-63
2022/03/03 03:21:43;;;;;;;0.10;0.10;;;;;;;9.09;76.74;100434.09;7361586;19;20034;-63
2022/03/03 03:24:08;;;;;;;0.10;0.10;;;;;;;9.13;76.83;100449.69;7363537;19;20102;-62
2022/03/03 03:26:34;;;;;;;0.00;0.00;;;;;;;9.06;76.83;100433.31;7367507;19;20097;-62
2022/03/03 03:28:59;;;;;;;0.00;0.00;;;;;;;9.10;76.81;100451.44;7364445;19;21448;-62
2022/03/03 03:31:24;;;;;;;0.10;0.10;;;;;;;9.12;77.03;100447.94;7359323;19;20030;-62
2022/03/03 03:33:50;;;;;;;0.10;0.10;;;;;;;9.13;76.83;100449.69;7361190;19;19999;-62
2022/03/03 03:36:15;;;;;;;0.00;0.00;;;;;;;9.14;76.76;100446.19;7361411;19;20876;-63
2022/03/03 03:38:41;;;;;;;0.00;0.00;;;;;;;9.14;76.68;100440.97;7363856;19;20014;-62
2022/03/03 03:41:06;;;;;;;0.00;0.00;;;;;;;9.14;76.74;100435.75;7229558;19;25635;-62
2022/03/03 03:43:32;;;;;;;0.00;0.00;;;;;;;9.05;76.53;100427.25;1204674;19;10001304;-63
2022/03/03 03:45:57;;;;;;;0.00;0.00;;;;;;;9.14;76.44;100440.97;7359364;19;20006;-62
2022/03/03 03:48:23;;;;;;;0.00;0.00;;;;;;;9.13;76.66;100444.47;7358262;19;20014;-62
2022/03/03 03:50:49;;;;;;;0.00;0.00;;;;;;;9.12;76.74;100453.16;7360880;19;20017;-62
2022/03/03 03:53:15;;;;;;;0.00;0.00;;;;;;;9.08;76.31;100442.81;7356436;19;20026;-62
2022/03/03 03:55:40;;;;;;;0.00;0.00;;;;;;;9.04;76.54;100446.38;7347131;19;20002;-62
2022/03/03 03:58:06;;;;;;;0.00;0.00;;;;;;;9.01;76.52;100446.41;7347276;19;20014;-61
2022/03/03 04:00:32;;;;;;;0.00;0.00;;;;;;;8.97;76.50;100450.00;7363673;19;20002;-62
2022/03/03 04:02:57;;;;;;;0.00;0.00;;;;;;;8.92;76.26;100451.84;7365282;19;20031;-63
2022/03/03 04:05:23;;;;;;;0.00;0.00;;;;;;;8.86;76.40;100451.09;7362404;19;20006;-62
2022/03/03 04:07:49;;;;;;;0.00;0.00;;;;;;;8.79;76.45;100450.34;7368511;19;20038;-62
2022/03/03 04:10:14;;;;;;;0.00;0.00;;;;;;;8.73;76.69;100453.94;7363804;19;20010;-62
2022/03/03 04:12:40;;;;;;;0.00;0.00;;;;;;;8.67;76.10;100453.16;7362554;19;20121;-62
2022/03/03 04:15:07;;;;;;;0.00;0.00;;;;;;;8.62;76.26;100460.22;7370201;19;20009;-61
2022/03/03 04:17:32;;;;;;;0.00;0.00;;;;;;;8.53;76.45;100464.72;7369115;19;20042;-62
2022/03/03 04:19:58;;;;;;;0.00;0.00;;;;;;;8.41;76.47;100451.91;7348804;19;20808;-62
2022/03/03 04:22:23;;;;;;;0.10;0.10;;;;;;;8.41;76.53;100459.72;7359426;19;20039;-62
2022/03/03 04:24:49;;;;;;;0.00;0.00;;;;;;;8.36;76.18;100465.84;7364040;19;20014;-62
2022/03/03 04:27:14;;;;;;;0.00;0.00;;;;;;;8.31;76.27;100473.72;7366056;19;20086;-62
2022/03/03 04:29:40;;;;;;;0.00;0.00;;;;;;;8.25;76.63;100471.25;7363140;19;20018;-62
2022/03/03 04:32:06;;;;;;;0.00;0.00;;;;;;;8.19;76.72;100473.94;7365970;19;20010;-62
2022/03/03 04:34:31;;;;;;;0.00;0.00;;;;;;;8.15;76.73;100474.88;7368498;19;20021;-62
2022/03/03 04:36:57;;;;;;;0.00;0.00;;;;;;;8.07;76.77;100478.47;7366347;19;20014;-62
2022/03/03 04:39:22;;;;;;;0.00;0.00;;;;;;;8.04;76.57;100480.25;7365642;19;20015;-62
2022/03/03 04:41:48;;;;;;;0.00;0.00;;;;;;;8.01;76.88;100481.19;7364759;19;20102;-63
2022/03/03 04:44:13;;;;;;;0.00;0.00;;;;;;;7.98;76.85;100480.34;7363484;19;20485;-62
2022/03/03 04:46:39;;;;;;;0.00;0.00;;;;;;;7.94;77.15;100479.53;7364017;19;20496;-62
2022/03/03 04:49:04;;;;;;;0.00;0.00;;;;;;;7.85;77.25;100458.88;7364689;19;20010;-62
2022/03/03 04:51:31;;;;;;;0.00;0.00;;;;;;;7.96;77.67;100472.59;7371414;19;20018;-62
2022/03/03 04:53:57;;;;;;;0.10;0.10;;;;;;;7.96;77.52;100475.19;7364692;19;20010;-62
2022/03/03 04:56:22;;;;;;;0.10;0.10;;;;;;;7.88;77.53;100464.03;7367411;19;20053;-62
2022/03/03 04:58:49;;;;;;;0.00;0.00;;;;;;;7.98;77.37;100486.41;7358660;19;20585;-62
2022/03/03 05:01:15;;;;;;;0.00;0.00;;;;;;;7.99;77.33;100490.72;7356140;19;20011;-62
2022/03/03 05:03:41;;;;;;;0.00;0.00;;;;;;;7.97;77.01;100494.25;7365728;19;20013;-62
2022/03/03 05:06:06;;;;;;;0.00;0.00;;;;;;;7.94;76.82;100489.94;7363383;19;20014;-62
2022/03/03 05:08:32;;;;;;;0.00;0.00;;;;;;;7.93;76.64;100498.63;7361689;19;20018;-62
2022/03/03 05:10:57;;;;;;;0.10;0.10;;;;;;;7.90;76.80;100503.84;7364711;19;20041;-62
2022/03/03 05:13:22;;;;;;;0.00;0.00;;;;;;;7.87;76.53;100522.13;7365065;19;20078;-62
2022/03/03 05:15:48;;;;;;;0.00;0.00;;;;;;;7.83;76.98;100525.63;7366758;19;20074;-62
2022/03/03 05:18:13;;;;;;;0.00;0.00;;;;;;;7.76;76.80;100521.41;7358387;19;20026;-60
2022/03/03 05:20:39;;;;;;;0.00;0.00;;;;;;;7.74;77.20;100539.63;7368591;19;20471;-62
2022/03/03 05:23:05;;;;;;;0.00;0.00;;;;;;;7.70;77.15;100560.47;7360034;19;20014;-62
2022/03/03 05:25:30;;;;;;;0.10;0.10;;;;;;;7.67;76.72;100558.78;7364730;19;20016;-62
2022/03/03 05:27:59;;;;;;;0.10;0.10;;;;;;;7.64;76.87;100558.81;7357186;19;20022;-62
2022/03/03 05:30:25;;;;;;;0.00;0.00;;;;;;;7.59;76.70;100551.97;7367205;19;20006;-62
2022/03/03 05:32:50;;;;;;;0.00;0.00;;;;;;;7.46;77.03;100544.34;7368208;19;20050;-62
2022/03/03 05:35:18;;;;;;;0.00;0.00;;;;;;;7.52;77.07;100551.19;7363104;19;20022;-62
2022/03/03 05:37:45;;;;;;;0.00;0.00;;;;;;;7.47;76.84;100566.84;7364700;19;20014;-62
2022/03/03 05:40:11;;;;;;;0.10;0.10;;;;;;;7.45;76.68;100571.19;7365049;19;20359;-62
2022/03/03 05:42:37;;;;;;;0.10;0.10;;;;;;;7.43;76.70;100569.47;7368380;19;20082;-62
2022/03/03 05:45:05;;;;;;;0.08;0.08;;;;;;;7.19;76.68;100539.44;1786467;19;10022898;-62
2022/03/03 05:47:31;;;;;;;0.00;0.00;;;;;;;7.37;76.51;100572.16;6762549;19;10000489;-62
2022/03/03 05:49:58;;;;;;;0.10;0.10;;;;;;;7.31;76.80;100570.50;7367630;19;20028;-61
2022/03/03 05:52:23;;;;;;;0.00;0.00;;;;;;;7.20;77.02;100551.59;7371004;19;20041;-62
2022/03/03 05:54:49;;;;;;;0.00;0.00;;;;;;;7.28;76.93;100573.13;7367933;19;20011;-62
2022/03/03 05:57:24;;;;;;;0.00;0.00;;;;;;;7.27;76.97;100568.81;7366202;19;20381;-62
2022/03/03 05:59:51;;;;;;;0.00;0.00;;;;;;;7.22;77.30;100565.41;7360612;19;20062;-62
2022/03/03 06:02:19;;;;;;;0.00;0.00;;;;;;;7.21;77.60;100571.47;7366116;19;20014;-62
2022/03/03 06:04:46;;;;;;;0.00;0.00;;;;;;;7.15;77.30;100569.81;7365246;19;20384;-62
2022/03/03 06:07:16;;;;;;;0.00;0.00;;;;;;;7.15;77.13;100574.16;7348338;19;20030;-62
2022/03/03 06:09:43;;;;;;;0.00;0.00;;;;;;;7.11;77.04;100577.66;7363823;19;20006;-62
2022/03/03 06:12:41;;;;;;;0.00;0.00;;;;;;;7.10;77.31;100581.13;7360931;19;20017;-62
2022/03/03 06:15:07;;;;;;;0.00;0.00;;;;;;;7.00;77.60;100586.41;7262521;19;2004415;-62
2022/03/03 06:17:35;;;;;;;0.10;0.10;;;;;;;7.05;77.45;100603.69;7362525;19;20606;-62
2022/03/03 06:20:02;;;;;;;0.10;0.10;;;;;;;6.87;77.56;100589.97;7364821;19;20012;-62
2022/03/03 06:22:27;;;;;;;0.00;0.00;;;;;;;6.95;77.92;100608.94;7360433;19;20006;-62
2022/03/03 06:24:53;;;;;;;0.05;0.05;;;;;;;6.96;77.71;100621.06;7356593;19;20013;-62
2022/03/03 06:27:19;;;;;;;0.10;0.10;;;;;;;6.95;77.46;100619.34;7362742;19;20088;-62
2022/03/03 06:29:44;;;;;;;0.10;0.10;;;;;;;6.92;77.87;100621.94;7360337;19;20019;-62
2022/03/03 06:32:11;;;;;;;0.10;0.10;;;;;;;6.90;77.48;100621.09;7366850;19;20573;-62
2022/03/03 06:34:37;;;;;;;0.00;0.00;;;;;;;6.86;77.45;100619.41;7363777;19;20011;-61
2022/03/03 06:37:03;;;;;;;0.10;0.10;;;;;;;6.84;77.57;100621.13;7364485;19;20775;-62
2022/03/03 06:39:29;;;;;;;0.00;0.00;;;;;;;6.82;77.13;100633.28;7369732;19;20601;-62
2022/03/03 06:41:54;;;;;;;0.00;0.00;;;;;;;6.79;77.19;100635.88;7373462;19;20091;-62
2022/03/03 06:44:20;;;;;;;0.10;0.10;;;;;;;6.76;76.90;100638.53;7368125;19;20089;-62
2022/03/03 06:46:47;;;;;;;0.00;0.00;;;;;;;6.72;76.96;100650.66;7365587;19;20029;-62
2022/03/03 06:49:12;;;;;;;0.00;0.00;;;;;;;6.70;77.17;100656.75;7363557;19;21067;-61
2022/03/03 06:51:49;;;;;;;0.00;0.00;;;;;;;6.69;77.31;100657.59;7357448;19;20019;-62
2022/03/03 06:54:21;;;;;;;0.00;0.00;;;;;;;6.65;77.60;100671.50;7360254;19;20011;-62
2022/03/03 06:56:52;;;;;;;0.00;0.00;;;;;;;6.62;77.43;100681.88;7360429;19;20007;-62
2022/03/03 06:59:29;;;;;;;0.00;0.00;;;;;;;6.60;77.18;100688.81;7361680;19;20030;-62
2022/03/03 07:01:56;;;;;;;0.10;0.10;;;;;;;6.56;77.53;100694.91;7358033;19;20030;-62
2022/03/03 07:04:23;;;;;;;0.00;0.00;;;;;;;6.46;77.65;100692.34;7354778;19;20014;-62
2022/03/03 07:06:49;;;;;;;0.10;0.10;;;;;;;6.49;77.68;100707.91;7361220;19;20558;-62
2022/03/03 07:09:16;;;;;;;0.00;0.00;;;;;;;6.47;77.50;100703.59;7363040;19;20470;-60
2022/03/03 07:11:43;;;;;;;0.00;0.00;;;;;;;6.45;77.22;100705.34;7358079;19;20038;-62
2022/03/03 07:14:10;;;;;;;0.00;0.00;;;;;;;6.42;77.33;100695.84;7361607;19;20081;-62
2022/03/03 07:17:04;;;;;;;0.00;0.00;;;;;;;6.40;77.19;100696.72;7352559;19;20022;-61
2022/03/03 07:19:39;;;;;;;0.00;0.00;;;;;;;6.37;77.07;100697.59;7256205;19;2005710;-62
2022/03/03 07:22:35;;;;;;;0.00;0.00;;;;;;;6.34;77.10;100708.00;7363770;19;20441;-62
2022/03/03 07:25:10;;;;;;;0.00;0.00;;;;;;;6.31;77.21;100718.38;7256051;19;2004392;-62
2022/03/03 07:27:40;;;;;;;0.00;0.00;;;;;;;6.27;77.75;100719.25;7366918;19;20007;-61
2022/03/03 07:30:08;;;;;;;0.00;0.00;;;;;;;6.24;77.71;100724.47;7354822;19;20019;-62
2022/03/03 07:32:43;;;;;;;0.00;0.00;;;;;;;6.22;78.08;100728.78;7370269;19;20471;-61
2022/03/03 07:35:12;;;;;;;0.00;0.00;;;;;;;6.20;78.15;100730.53;7362717;19;20518;-62
2022/03/03 07:37:58;;;;;;;0.00;0.00;;;;;;;6.19;77.94;100723.63;7358645;19;20530;-62
2022/03/03 07:40:41;;;;;;;0.10;0.10;;;;;;;6.19;77.49;100729.69;4145048;19;10003271;-61
2022/03/03 07:43:08;;;;;;;0.00;0.00;;;;;;;6.17;77.75;100743.50;5536548;19;10001044;-61
2022/03/03 07:45:33;;;;;;;0.00;0.00;;;;;;;6.16;78.08;100741.78;7354551;19;20074;-61
2022/03/03 07:47:59;;;;;;;0.00;0.00;;;;;;;6.15;77.82;100747.84;7368685;19;20546;-62
2022/03/03 07:50:25;;;;;;;0.10;0.10;;;;;;;6.13;78.11;100749.56;7362159;19;20025;-61
2022/03/03 07:52:52;;;;;;;0.00;0.00;;;;;;;6.13;78.03;100759.94;7356281;19;20013;-61
2022/03/03 07:55:18;;;;;;;0.00;0.00;;;;;;;6.12;77.87;100766.00;7353474;19;20011;-62
2022/03/03 07:58:00;;;;;;;0.00;0.00;;;;;;;6.12;77.86;100763.41;7364953;19;20051;-62
2022/03/03 08:00:31;;;;;;;0.00;0.00;;;;;;;6.13;78.15;100759.94;7349993;19;20014;-61
2022/03/03 08:03:05;;;;;;;0.00;0.00;;;;;;;6.13;78.03;100768.59;7363711;19;20018;-61
2022/03/03 08:05:31;;;;;;;0.00;0.00;;;;;;;6.12;78.08;100769.44;7350257;19;20025;-61
2022/03/03 08:08:00;;;;;;;0.05;0.05;;;;;;;6.13;78.27;100770.31;7359748;19;20018;-61
2022/03/03 08:10:27;;;;;;;0.00;0.00;;;;;;;6.14;77.68;100772.91;7361717;19;20119;-62
2022/03/03 08:12:55;;;;;;;0.08;0.08;;;;;;;6.16;77.82;100770.31;7357827;19;20580;-61
2022/03/03 08:15:21;;;;;;;0.10;0.10;;;;;;;6.17;78.06;100774.63;7360163;19;20018;-61
2022/03/03 08:17:51;;;;;;;0.00;0.00;;;;;;;6.18;78.25;100774.63;7355707;19;20014;-61
2022/03/03 08:20:17;;;;;;;0.10;0.10;;;;;;;6.20;78.20;100778.06;7365657;19;20601;-61
2022/03/03 08:22:43;;;;;;;0.10;0.10;;;;;;;6.22;78.13;100780.66;7358984;19;20014;-62
2022/03/03 08:25:11;;;;;;;0.10;0.10;;;;;;;6.23;78.17;100788.44;7365801;19;20029;-61
2022/03/03 08:27:37;;;;;;;0.10;0.10;;;;;;;6.29;78.13;100791.88;7345728;19;20576;-62
2022/03/03 08:30:04;;;;;;;0.00;0.00;;;;;;;6.33;77.84;100799.63;7361442;19;20093;-62
2022/03/03 08:33:01;;;;;;;0.00;0.00;;;;;;;6.40;77.76;100796.16;7358487;19;20050;-62
2022/03/03 08:35:31;;;;;;;0.00;0.00;;;;;;;6.43;77.86;100785.75;7264891;19;2004398;-61
2022/03/03 08:38:31;;;;;;;0.00;0.00;;;;;;;6.59;78.03;100798.63;7369919;19;20023;-61
2022/03/03 08:40:59;;;;;;;0.00;0.00;;;;;;;6.64;78.08;100802.97;7259364;19;2004311;-62
2022/03/03 08:43:27;;;;;;;0.00;0.00;;;;;;;6.73;77.92;100795.09;7364196;19;20817;-61
2022/03/03 08:45:56;;;;;;;0.05;0.05;;;;;;;6.84;77.65;100791.59;7362580;19;20101;-61
2022/03/03 08:48:26;;;;;;;0.10;0.10;;;;;;;7.02;77.23;100794.94;7366410;19;20355;-62
2022/03/03 08:50:53;;;;;;;0.00;0.00;;;;;;;7.28;77.67;100812.06;7353544;19;20037;-61
2022/03/03 08:53:18;;;;;;;0.00;0.00;;;;;;;7.47;77.19;100821.44;7364553;19;20029;-61
2022/03/03 08:55:44;;;;;;;0.00;0.00;;;;;;;7.66;77.10;100824.78;7349520;19;20022;-62
2022/03/03 08:58:10;;;;;;;0.00;0.00;;;;;;;7.80;76.67;100819.41;7368196;19;20040;-62
2022/03/03 09:00:37;;;;;;;0.05;0.05;;;;;;;8.02;76.51;100835.69;7360671;19;20014;-62
2022/03/03 09:03:03;;;;;;;0.00;0.00;;;;;;;8.14;76.28;100829.50;7351453;19;20014;-62
2022/03/03 09:05:29;;;;;;;0.00;0.00;;;;;;;8.28;75.98;100840.63;7365884;19;20014;-62
2022/03/03 09:07:54;;;;;;;0.10;0.10;;;;;;;8.46;75.83;100839.56;7375815;19;20011;-61
2022/03/03 09:10:21;;;;;;;0.10;0.10;;;;;;;8.61;75.77;100841.13;7355636;19;20021;-61
2022/03/03 09:12:46;;;;;;;0.03;0.03;;;;;;;8.72;75.27;100845.34;7366603;19;20018;-62
2022/03/03 09:15:12;;;;;;;0.00;0.00;;;;;;;8.85;74.98;100848.63;7359516;19;20040;-62
2022/03/03 09:17:38;;;;;;;0.10;0.10;;;;;;;9.00;75.16;100845.81;7367300;19;20716;-62
2022/03/03 09:20:06;;;;;;;0.00;0.00;;;;;;;9.16;74.57;100841.25;7345287;19;20394;-62
2022/03/03 09:22:33;;;;;;;0.00;0.00;;;;;;;9.28;74.56;100840.22;7359212;19;20014;-62
2022/03/03 09:24:59;;;;;;;0.00;0.00;;;;;;;9.30;74.28;100828.00;7363521;19;20451;-62
2022/03/03 09:27:25;;;;;;;0.03;0.03;;;;;;;9.45;73.58;100838.19;7360460;19;20007;-63
2022/03/03 09:29:51;;;;;;;0.00;0.00;;;;;;;9.39;73.26;100827.03;7361412;19;20037;-62
2022/03/03 09:32:17;;;;;;;0.00;0.00;;;;;;;9.51;73.57;100853.75;7365559;19;20038;-62
2022/03/03 09:34:45;;;;;;;0.10;0.10;;;;;;;9.54;73.62;100858.06;7350334;19;20099;-61
2022/03/03 09:37:17;;;;;;;0.10;0.10;;;;;;;9.56;73.15;100862.34;7044572;19;10000738;-62
2022/03/03 09:39:48;;;;;;;0.00;0.00;;;;;;;9.63;73.54;100868.34;1621407;19;10001292;-62
2022/03/03 09:42:13;;;;;;;0.10;0.10;;;;;;;9.76;73.55;100874.22;7362541;19;20017;-62
2022/03/03 09:44:39;;;;;;;0.00;0.00;;;;;;;9.84;73.33;100856.69;7362764;19;20085;-62
2022/03/03 09:47:05;;;;;;;0.10;0.10;;;;;;;10.20;73.10;100870.81;7366027;19;20013;-62
2022/03/03 09:49:30;;;;;;;0.10;0.10;;;;;;;10.36;72.77;100869.69;7364569;19;20498;-61
2022/03/03 09:51:56;;;;;;;0.00;0.00;;;;;;;10.67;72.64;100881.28;7359844;19;20006;-62
2022/03/03 09:54:22;;;;;;;0.00;0.00;;;;;;;10.82;72.35;100866.16;7375906;19;20664;-61
2022/03/03 09:56:47;;;;;;;0.00;0.00;;;;;;;11.22;71.40;100901.00;7370907;19;20010;-61
2022/03/03 09:59:13;;;;;;;0.10;0.10;;;;;;;11.45;70.65;100898.72;7368661;19;20014;-62
2022/03/03 10:01:39;;;;;;;0.10;0.10;;;;;;;11.69;70.16;100897.28;7359276;19;20550;-60
2022/03/03 10:04:24;;;;;;;0.10;0.10;;;;;;;12.07;71.13;100900.75;7364855;19;20018;-62
2022/03/03 10:06:51;;;;;;;0.10;0.10;;;;;;;12.28;69.37;100904.56;7344307;19;20415;-62
2022/03/03 10:09:18;;;;;;;0.00;0.00;;;;;;;12.58;68.64;100901.13;7367812;19;20011;-61
2022/03/03 10:11:59;;;;;;;0.00;0.00;;;;;;;12.93;68.81;100904.50;7357188;19;20018;-62
2022/03/03 10:14:30;;;;;;;0.00;0.00;;;;;;;13.17;67.52;100898.50;7353739;19;20015;-62
2022/03/03 10:16:56;;;;;;;0.00;0.00;;;;;;;13.27;66.53;100895.66;7364430;19;20013;-62
2022/03/03 10:19:22;;;;;;;0.00;0.00;;;;;;;13.50;66.28;100903.69;7356786;19;20123;-62
2022/03/03 10:21:48;;;;;;;0.10;0.10;;;;;;;13.63;66.42;100881.38;7366471;19;20006;-62
2022/03/03 10:24:34;;;;;;;0.03;0.03;;;;;;;14.14;67.92;100900.69;7355773;19;20087;-62
2022/03/03 10:27:06;;;;;;;0.00;0.00;;;;;;;14.32;65.58;100893.94;7361836;19;20006;-62
2022/03/03 10:29:34;;;;;;;0.00;0.00;;;;;;;14.61;65.02;100906.09;7358380;19;20006;-62
2022/03/03 10:32:02;;;;;;;0.10;0.10;;;;;;;14.91;63.18;100904.13;7363436;19;20748;-62
2022/03/03 10:34:27;;;;;;;0.10;0.10;;;;;;;15.22;63.23;100914.31;7358710;19;20467;-62
2022/03/03 10:37:04;;;;;;;0.00;0.00;;;;;;;15.61;62.92;100914.50;7362118;19;20006;-63
2022/03/03 10:39:48;;;;;;;0.10;0.10;;;;;;;16.01;64.34;100910.28;7369468;19;20026;-61
2022/03/03 10:42:19;;;;;;;0.03;0.03;;;;;;;16.28;61.83;100914.41;7373851;19;20026;-63
2022/03/03 10:44:45;;;;;;;0.00;0.00;;;;;;;16.53;61.02;100918.63;7370746;19;20010;-62
2022/03/03 10:47:16;;;;;;;0.00;0.00;;;;;;;16.88;60.88;100925.00;7366513;19;20516;-62
2022/03/03 10:49:48;;;;;;;0.10;0.10;;;;;;;17.10;59.12;100930.13;7357716;19;20014;-62
2022/03/03 10:52:19;;;;;;;0.05;0.05;;;;;;;17.34;59.83;100931.63;7362242;19;20360;-62
2022/03/03 10:54:56;;;;;;;0.10;0.10;;;;;;;17.61;59.40;100937.38;7356442;19;20373;-62
2022/03/03 10:57:30;;;;;;;0.08;0.08;;;;;;;17.93;61.28;100936.75;7355429;19;20022;-62
2022/03/03 10:59:59;;;;;;;0.10;0.10;;;;;;;18.06;58.17;100938.72;7359112;19;20016;-60
2022/03/03 11:02:29;;;;;;;0.10;0.10;;;;;;;18.41;58.89;100938.72;7348208;19;20183;-60
2022/03/03 11:04:56;;;;;;;0.00;0.00;;;;;;;18.62;56.07;100936.75;7366512;19;20003;-62
2022/03/03 11:07:22;;;;;;;0.00;0.00;;;;;;;18.93;56.82;100942.16;7342661;19;20017;-62
2022/03/03 11:09:49;;;;;;;0.10;0.10;;;;;;;19.27;55.49;100937.69;7364274;19;20014;-62
2022/03/03 11:12:15;;;;;;;0.10;0.10;;;;;;;19.52;54.96;100938.97;7343775;19;20356;-62
2022/03/03 11:14:43;;;;;;;0.00;0.00;;;;;;;19.66;53.10;100928.47;7365782;19;20077;-62
2022/03/03 11:17:10;;;;;;;0.10;0.10;;;;;;;19.93;53.05;100950.75;7365780;19;20018;-62
2022/03/03 11:19:37;;;;;;;0.10;0.10;;;;;;;20.12;52.38;100939.06;7355021;19;20057;-61
2022/03/03 11:22:03;;;;;;;0.10;0.10;;;;;;;20.24;52.25;100940.16;7366341;19;20456;-62
2022/03/03 11:24:30;;;;;;;0.10;0.10;;;;;;;20.47;50.60;100945.81;7365210;19;20779;-62
2022/03/03 11:27:03;;;;;;;0.00;0.00;;;;;;;20.71;52.50;100937.31;7341257;19;20345;-62
2022/03/03 11:29:31;;;;;;;0.10;0.10;;;;;;;20.72;51.72;100933.72;7327342;19;20050;-62
2022/03/03 11:32:01;;;;;;;0.10;0.10;;;;;;;20.90;53.29;100932.59;7357391;19;20444;-62
2022/03/03 11:34:43;;;;;;;0.10;0.10;;;;;;;21.10;53.04;100930.50;7358869;19;20006;-62